Aviation Digital Data Service (ADDS)

Output produced by TAFs form (1043 UTC 24 July 2016)
found at http://aviationweather.gov/adds/tafs/
 
KRIL 240551Z 2406/2506 14004KT P6SM VCTS SCT100CB SCT150 
     TEMPO 2406/2408 VRB10G20KT P6SM BKN100CB 
     FM240900 VRB03KT P6SM SCT250 
     FM242000 30008KT P6SM SCT200 
     FM250200 06004KT P6SM SCT200